createdAt,value
2022-07-30T00:00:23.830Z,28.06
2022-07-30T00:01:42.917Z,28.13
2022-07-30T00:02:52.820Z,28.18
2022-07-30T00:04:07.211Z,28.24
2022-07-30T00:05:15.188Z,28.43
2022-07-30T00:06:23.540Z,28.42
2022-07-30T00:07:31.801Z,28.43
2022-07-30T00:08:42.030Z,28.75
2022-07-30T00:09:52.095Z,28.95
2022-07-30T00:11:00.886Z,28.80
2022-07-30T00:12:11.213Z,28.56
2022-07-30T00:13:21.689Z,28.62
2022-07-30T00:14:29.255Z,28.58
2022-07-30T00:15:39.377Z,28.82
2022-07-30T00:16:49.124Z,29.06
2022-07-30T00:17:59.097Z,28.93
2022-07-30T00:19:09.731Z,29.10
2022-07-30T00:20:19.113Z,29.33
2022-07-30T00:21:38.762Z,29.32
2022-07-30T00:22:49.655Z,29.40
2022-07-30T00:24:01.493Z,29.32
2022-07-30T00:25:12.196Z,29.26
2022-07-30T00:26:21.827Z,29.41
2022-07-30T00:27:30.103Z,29.35
2022-07-30T00:28:41.367Z,29.41
2022-07-30T00:29:51.130Z,29.49
2022-07-30T00:31:03.075Z,29.52
2022-07-30T00:32:14.001Z,29.51
2022-07-30T00:33:22.176Z,29.49
2022-07-30T00:34:33.818Z,29.42
2022-07-30T00:35:44.327Z,29.32
2022-07-30T00:36:54.809Z,29.35
2022-07-30T00:38:03.764Z,29.31
2022-07-30T00:39:14.433Z,29.58
2022-07-30T00:40:24.614Z,29.75
2022-07-30T00:41:32.711Z,29.87
2022-07-30T00:42:45.444Z,30.16
2022-07-30T00:43:56.089Z,30.24
2022-07-30T00:45:07.663Z,30.22
2022-07-30T00:46:17.333Z,30.38
2022-07-30T00:47:25.287Z,30.36
2022-07-30T00:48:33.991Z,30.23
2022-07-30T00:49:44.582Z,30.13
2022-07-30T00:50:52.936Z,29.91
2022-07-30T00:52:04.540Z,30.15
2022-07-30T00:53:15.417Z,30.12
2022-07-30T00:54:25.216Z,30.60
2022-07-30T00:55:33.393Z,30.71
2022-07-30T00:56:42.014Z,30.56
2022-07-30T00:57:51.346Z,30.48
2022-07-30T00:59:01.157Z,30.50
2022-07-30T01:00:14.957Z,30.50
2022-07-30T01:01:23.400Z,30.89
2022-07-30T01:02:31.281Z,30.95
2022-07-30T01:03:41.481Z,30.45
2022-07-30T01:04:51.510Z,30.44
2022-07-30T01:06:02.130Z,30.54
2022-07-30T01:07:12.954Z,30.50
2022-07-30T01:08:21.291Z,30.89
2022-07-30T01:09:29.075Z,31.04
2022-07-30T01:10:37.377Z,31.04
2022-07-30T01:11:48.846Z,30.85
2022-07-30T01:13:01.225Z,30.72
2022-07-30T01:14:11.755Z,31.00
2022-07-30T01:15:20.289Z,31.29
2022-07-30T01:16:28.206Z,30.97
2022-07-30T01:17:39.316Z,31.16
2022-07-30T01:19:09.048Z,31.00
2022-07-30T01:20:32.189Z,31.37
2022-07-30T01:21:43.038Z,31.40
2022-07-30T01:23:05.691Z,31.18
2022-07-30T01:24:37.343Z,31.20
2022-07-30T01:26:07.996Z,31.11
2022-07-30T01:27:19.991Z,31.38
2022-07-30T01:28:39.357Z,31.33
2022-07-30T01:29:48.565Z,31.27
2022-07-30T01:30:59.799Z,31.82
2022-07-30T01:32:10.156Z,32.27
2022-07-30T01:33:19.782Z,32.40
2022-07-30T01:34:29.565Z,32.88
2022-07-30T01:35:39.299Z,32.98
2022-07-30T01:36:49.383Z,33.07
2022-07-30T01:37:58.388Z,32.91
2022-07-30T01:39:08.979Z,32.95
2022-07-30T01:40:19.826Z,33.12
2022-07-30T01:41:27.793Z,33.00
2022-07-30T01:42:35.941Z,32.92
2022-07-30T01:43:49.743Z,33.19
2022-07-30T01:44:59.503Z,32.98
2022-07-30T01:46:09.185Z,33.00
2022-07-30T01:47:19.928Z,33.04
2022-07-30T01:48:28.720Z,33.18
2022-07-30T01:49:39.859Z,33.23
2022-07-30T01:50:50.787Z,33.40
2022-07-30T01:52:00.123Z,33.89
2022-07-30T01:53:09.721Z,34.00
2022-07-30T01:54:19.195Z,34.32
2022-07-30T01:55:39.223Z,34.34
2022-07-30T01:56:51.230Z,34.56
2022-07-30T01:58:01.657Z,34.94
2022-07-30T01:59:12.241Z,35.49
2022-07-30T02:00:21.649Z,35.52
2022-07-30T02:01:32.977Z,35.50
2022-07-30T02:02:43.110Z,35.58
2022-07-30T02:03:53.283Z,35.79
2022-07-30T02:05:01.994Z,36.28
2022-07-30T02:06:18.985Z,36.38
2022-07-30T02:07:39.305Z,36.37
2022-07-30T02:08:57.701Z,37.24
2022-07-30T02:10:15.750Z,37.63
2022-07-30T02:11:43.546Z,38.01
2022-07-30T02:12:59.379Z,38.26
2022-07-30T02:14:17.415Z,38.69
2022-07-30T02:15:32.386Z,38.74
2022-07-30T02:16:41.412Z,39.28
2022-07-30T02:17:58.574Z,39.58
2022-07-30T02:19:19.785Z,39.79
2022-07-30T02:20:30.415Z,40.30
2022-07-30T02:21:51.513Z,40.42
2022-07-30T02:23:09.529Z,40.81
2022-07-30T02:24:22.966Z,40.97
2022-07-30T02:25:34.767Z,41.40
2022-07-30T02:26:43.997Z,41.78
2022-07-30T02:27:55.146Z,42.15
2022-07-30T02:29:06.407Z,42.31
2022-07-30T02:30:18.644Z,42.40
2022-07-30T02:31:27.786Z,42.51
2022-07-30T02:32:39.812Z,42.87
2022-07-30T02:33:51.186Z,43.36
2022-07-30T02:35:03.035Z,43.39
2022-07-30T02:36:12.500Z,43.49
2022-07-30T02:37:43.291Z,43.60
2022-07-30T02:38:57.286Z,44.24
2022-07-30T02:40:12.997Z,44.22
2022-07-30T02:41:22.357Z,44.40
2022-07-30T02:42:30.498Z,44.80
2022-07-30T02:43:40.198Z,44.97
2022-07-30T02:44:50.515Z,44.93
2022-07-30T02:45:59.823Z,45.21
2022-07-30T02:47:18.209Z,45.18
2022-07-30T02:48:35.643Z,45.29
2022-07-30T02:49:46.687Z,45.45
2022-07-30T02:51:01.227Z,45.49
2022-07-30T02:52:15.406Z,45.77
2022-07-30T02:53:23.949Z,46.13
2022-07-30T02:54:32.043Z,46.08
2022-07-30T02:55:41.488Z,46.17
2022-07-30T02:56:52.095Z,46.28
2022-07-30T02:58:03.189Z,46.48
2022-07-30T02:59:14.521Z,46.54
2022-07-30T03:00:23.233Z,46.77
2022-07-30T03:01:31.695Z,46.98
2022-07-30T03:02:40.397Z,47.18
2022-07-30T03:03:54.892Z,47.45
2022-07-30T03:05:06.177Z,47.63
2022-07-30T03:06:16.015Z,47.47
2022-07-30T03:07:24.835Z,47.35
2022-07-30T03:08:33.583Z,47.48
2022-07-30T03:09:51.488Z,47.69
2022-07-30T03:11:02.485Z,47.94
2022-07-30T03:12:13.897Z,47.94
2022-07-30T03:13:22.601Z,48.07
2022-07-30T03:14:31.260Z,48.17
2022-07-30T03:15:40.114Z,48.37
2022-07-30T03:16:53.790Z,48.33
2022-07-30T03:18:03.369Z,48.59
2022-07-30T03:19:13.267Z,48.63
2022-07-30T03:20:24.365Z,48.66
2022-07-30T03:21:32.364Z,48.71
2022-07-30T03:22:48.549Z,48.68
2022-07-30T03:23:59.353Z,48.80
2022-07-30T03:25:09.227Z,48.69
2022-07-30T03:26:19.652Z,48.47
2022-07-30T03:27:27.653Z,48.69
2022-07-30T03:28:38.569Z,48.84
2022-07-30T03:30:01.900Z,49.02
2022-07-30T03:31:12.527Z,49.00
2022-07-30T03:32:26.220Z,49.14
2022-07-30T03:33:38.714Z,49.27
2022-07-30T03:34:49.746Z,49.35
2022-07-30T03:35:58.181Z,49.52
2022-07-30T03:37:11.032Z,49.25
2022-07-30T03:38:19.943Z,49.09
2022-07-30T03:39:29.460Z,49.23
2022-07-30T03:40:37.635Z,49.44
2022-07-30T03:41:50.015Z,49.47
2022-07-30T03:42:59.940Z,49.74
2022-07-30T03:44:10.103Z,49.80
2022-07-30T03:45:20.536Z,49.92
2022-07-30T03:46:29.059Z,50.00
2022-07-30T03:47:38.809Z,49.73
2022-07-30T03:48:49.520Z,49.71
2022-07-30T03:50:01.045Z,49.67
2022-07-30T03:51:14.739Z,49.51
2022-07-30T03:52:25.900Z,49.56
2022-07-30T03:53:34.632Z,49.63
2022-07-30T03:55:19.883Z,49.77
2022-07-30T03:56:32.060Z,49.82
2022-07-30T03:57:48.953Z,49.66
2022-07-30T03:58:59.534Z,49.73
2022-07-30T04:00:17.511Z,50.05
2022-07-30T04:01:30.062Z,49.84
2022-07-30T04:02:49.587Z,49.51
2022-07-30T04:04:19.586Z,49.25
2022-07-30T04:05:27.757Z,49.26
2022-07-30T04:06:49.885Z,49.17
2022-07-30T04:08:00.404Z,49.03
2022-07-30T04:09:11.209Z,49.04
2022-07-30T04:10:23.061Z,48.91
2022-07-30T04:11:42.068Z,48.88
2022-07-30T04:12:54.785Z,49.01
2022-07-30T04:14:06.029Z,49.06
2022-07-30T04:16:38.199Z,49.13
2022-07-30T04:17:02.145Z,49.16
2022-07-30T04:18:13.221Z,49.03
2022-07-30T04:19:30.139Z,48.95
2022-07-30T04:20:42.243Z,48.56
2022-07-30T04:21:51.981Z,48.47
2022-07-30T04:23:02.532Z,48.39
2022-07-30T04:24:12.927Z,48.23
2022-07-30T04:25:24.690Z,48.16
2022-07-30T04:26:34.672Z,48.12
2022-07-30T04:28:03.378Z,47.97
2022-07-30T04:29:13.759Z,47.92
2022-07-30T04:30:25.544Z,47.80
2022-07-30T04:31:40.508Z,47.76
2022-07-30T04:33:16.098Z,47.69
2022-07-30T04:34:56.342Z,47.75
2022-07-30T04:36:28.319Z,47.75
2022-07-30T04:37:36.429Z,47.82
2022-07-30T04:38:46.529Z,47.67
2022-07-30T04:40:00.924Z,47.64
2022-07-30T04:41:10.460Z,47.62
2022-07-30T04:42:38.862Z,47.63
2022-07-30T04:43:53.703Z,47.62
2022-07-30T04:45:03.142Z,47.61
2022-07-30T04:46:20.297Z,47.69
2022-07-30T04:47:34.861Z,47.91
2022-07-30T04:49:15.347Z,48.20
2022-07-30T04:50:30.090Z,48.42
2022-07-30T04:51:39.550Z,48.73
2022-07-30T04:52:48.634Z,48.77
2022-07-30T04:54:02.600Z,49.01
2022-07-30T04:55:12.862Z,49.08
2022-07-30T04:56:22.647Z,49.19
2022-07-30T04:57:30.490Z,49.28
2022-07-30T04:58:38.589Z,49.40
2022-07-30T04:59:50.191Z,49.37
2022-07-30T05:00:59.343Z,49.31
2022-07-30T05:02:13.654Z,49.46
2022-07-30T05:03:22.765Z,49.53
2022-07-30T05:04:33.175Z,49.62
2022-07-30T05:05:43.331Z,49.70
2022-07-30T05:06:53.199Z,49.76
2022-07-30T05:08:03.567Z,49.83
2022-07-30T05:09:14.155Z,49.91
2022-07-30T05:10:23.195Z,50.05
2022-07-30T05:11:32.310Z,50.17
2022-07-30T05:12:41.824Z,50.22
2022-07-30T05:13:52.015Z,50.20
2022-07-30T05:15:02.604Z,50.37
2022-07-30T05:16:13.385Z,50.47
2022-07-30T05:17:25.249Z,50.55
2022-07-30T05:18:33.477Z,50.53
2022-07-30T05:19:42.588Z,50.53
2022-07-30T05:20:52.594Z,50.73
2022-07-30T05:22:07.491Z,50.82
2022-07-30T05:23:19.009Z,50.83
2022-07-30T05:24:38.519Z,50.81
2022-07-30T05:25:47.154Z,51.03
2022-07-30T05:26:59.493Z,51.16
2022-07-30T05:28:09.267Z,51.45
2022-07-30T05:29:20.812Z,51.49
2022-07-30T05:30:32.607Z,51.56
2022-07-30T05:31:40.978Z,51.64
2022-07-30T05:32:53.933Z,51.73
2022-07-30T05:34:07.133Z,51.78
2022-07-30T05:35:26.665Z,51.93
2022-07-30T05:36:34.692Z,51.88
2022-07-30T05:37:43.047Z,51.79
2022-07-30T05:38:53.898Z,51.79
2022-07-30T05:40:32.076Z,51.62
2022-07-30T05:42:10.124Z,51.79
2022-07-30T05:43:24.629Z,51.82
2022-07-30T05:44:32.677Z,51.66
2022-07-30T05:45:41.151Z,51.58
2022-07-30T05:46:51.145Z,51.70
2022-07-30T05:47:59.897Z,51.67
2022-07-30T05:49:10.637Z,51.70
2022-07-30T05:50:20.576Z,51.54
2022-07-30T05:51:28.541Z,51.46
2022-07-30T05:52:36.713Z,51.49
2022-07-30T05:53:59.074Z,51.62
2022-07-30T05:55:38.429Z,51.68
2022-07-30T05:56:58.171Z,51.60
2022-07-30T05:58:15.806Z,51.84
2022-07-30T05:59:26.723Z,51.91
2022-07-30T06:00:46.058Z,51.82
2022-07-30T06:01:54.935Z,51.87
2022-07-30T06:03:08.921Z,52.11
2022-07-30T06:04:53.265Z,52.17
2022-07-30T06:06:02.055Z,52.19
2022-07-30T06:07:11.010Z,52.23
2022-07-30T06:08:20.745Z,52.28
2022-07-30T06:09:36.534Z,51.98
2022-07-30T06:10:46.584Z,51.92
2022-07-30T06:11:57.435Z,52.08
2022-07-30T06:13:06.141Z,52.03
2022-07-30T06:14:16.602Z,52.00
2022-07-30T06:15:26.992Z,52.03
2022-07-30T06:16:35.000Z,52.15
2022-07-30T06:17:51.052Z,52.22
2022-07-30T06:19:28.825Z,52.36
2022-07-30T06:20:36.499Z,52.40
2022-07-30T06:22:13.476Z,52.74
2022-07-30T06:23:25.130Z,52.99
2022-07-30T06:24:49.248Z,52.62
2022-07-30T06:26:02.703Z,52.64
2022-07-30T06:27:13.535Z,53.03
2022-07-30T06:28:36.947Z,53.23
2022-07-30T06:29:45.910Z,53.28
2022-07-30T06:30:57.385Z,53.19
2022-07-30T06:32:10.365Z,53.25
2022-07-30T06:33:20.697Z,53.36
2022-07-30T06:34:30.455Z,53.26
2022-07-30T06:35:38.264Z,53.25
2022-07-30T06:36:49.622Z,53.35
2022-07-30T06:38:07.409Z,53.36
2022-07-30T06:39:56.811Z,53.66
2022-07-30T06:41:04.665Z,53.87
2022-07-30T06:42:30.471Z,54.34
2022-07-30T06:44:11.373Z,54.19
2022-07-30T06:45:51.431Z,54.28
2022-07-30T06:47:08.398Z,54.73
2022-07-30T06:48:18.412Z,54.57
2022-07-30T06:49:29.418Z,54.46
2022-07-30T06:50:38.652Z,54.89
2022-07-30T06:51:50.730Z,54.59
2022-07-30T06:53:01.454Z,54.93
2022-07-30T06:54:20.946Z,55.09
2022-07-30T06:56:00.599Z,55.65
2022-07-30T06:57:18.493Z,55.60
2022-07-30T06:58:28.626Z,55.79
2022-07-30T06:59:56.356Z,55.97
2022-07-30T07:01:13.991Z,56.16
2022-07-30T07:02:23.975Z,56.23
2022-07-30T07:03:50.488Z,56.10
2022-07-30T07:05:02.158Z,56.30
2022-07-30T07:06:11.217Z,56.29
2022-07-30T07:07:40.406Z,56.65
2022-07-30T07:08:51.466Z,56.65
2022-07-30T07:10:08.641Z,56.89
2022-07-30T07:11:26.344Z,56.98
2022-07-30T07:12:36.659Z,56.85
2022-07-30T07:13:45.176Z,57.05
2022-07-30T07:15:00.620Z,57.07
2022-07-30T07:16:10.205Z,57.17
2022-07-30T07:17:21.050Z,57.25
2022-07-30T07:18:38.356Z,57.49
2022-07-30T07:20:01.293Z,57.59
2022-07-30T07:21:27.321Z,57.52
2022-07-30T07:22:35.383Z,57.80
2022-07-30T07:23:43.377Z,57.88
2022-07-30T07:25:11.765Z,58.14
2022-07-30T07:26:21.437Z,58.40
2022-07-30T07:27:30.003Z,58.15
2022-07-30T07:28:41.665Z,58.56
2022-07-30T07:30:04.945Z,58.77
2022-07-30T07:32:04.542Z,58.44
2022-07-30T07:32:49.045Z,58.83
2022-07-30T07:33:57.477Z,58.55
2022-07-30T07:35:08.694Z,58.48
2022-07-30T07:36:19.026Z,58.62
2022-07-30T07:37:29.765Z,58.49
2022-07-30T07:38:38.213Z,58.38
2022-07-30T07:39:46.326Z,58.55
2022-07-30T07:40:57.095Z,58.69
2022-07-30T07:42:05.735Z,58.80
2022-07-30T07:43:16.462Z,58.94
2022-07-30T07:44:26.637Z,59.04
2022-07-30T07:45:36.071Z,59.13
2022-07-30T07:46:50.664Z,59.06
2022-07-30T07:48:01.354Z,59.23
2022-07-30T07:49:27.998Z,60.24
2022-07-30T07:50:36.316Z,60.88
2022-07-30T07:51:47.045Z,60.81
2022-07-30T07:52:59.076Z,61.12
2022-07-30T07:54:21.074Z,61.45
2022-07-30T07:55:33.946Z,61.78
2022-07-30T07:56:42.402Z,62.21
2022-07-30T07:57:52.371Z,62.26
2022-07-30T07:59:03.704Z,62.40
2022-07-30T08:00:14.274Z,63.04
2022-07-30T08:01:31.446Z,63.42
2022-07-30T08:03:07.514Z,63.47
2022-07-30T08:04:18.279Z,63.79
2022-07-30T08:05:54.418Z,63.59
2022-07-30T08:07:41.972Z,63.41
2022-07-30T08:09:06.777Z,63.48
2022-07-30T08:10:37.222Z,63.14
2022-07-30T08:11:45.762Z,62.97
2022-07-30T08:13:48.350Z,62.80
2022-07-30T08:15:01.796Z,63.24
2022-07-30T08:16:21.624Z,63.51
2022-07-30T08:17:49.032Z,63.70
2022-07-30T08:19:08.936Z,63.63
2022-07-30T08:20:24.429Z,63.71
2022-07-30T08:21:33.378Z,64.19
2022-07-30T08:22:41.094Z,64.38
2022-07-30T08:23:51.146Z,64.41
2022-07-30T08:25:00.154Z,64.02
2022-07-30T08:26:11.560Z,63.66
2022-07-30T08:27:21.547Z,63.31
2022-07-30T08:28:35.975Z,63.03
2022-07-30T08:29:46.616Z,63.07
2022-07-30T08:31:00.469Z,62.82
2022-07-30T08:32:11.125Z,62.91
2022-07-30T08:33:21.425Z,62.80
2022-07-30T08:34:37.025Z,63.04
2022-07-30T08:35:52.816Z,63.59
2022-07-30T08:37:10.694Z,64.00
2022-07-30T08:38:26.052Z,64.66
2022-07-30T08:39:34.329Z,64.86
2022-07-30T08:40:42.130Z,65.05
2022-07-30T08:41:55.153Z,65.08
2022-07-30T08:43:06.897Z,65.17
2022-07-30T08:44:20.125Z,65.20
2022-07-30T08:45:34.605Z,65.15
2022-07-30T08:47:11.954Z,65.35
2022-07-30T08:48:54.489Z,65.49
2022-07-30T08:50:06.255Z,65.64
2022-07-30T08:51:17.557Z,65.73
2022-07-30T08:52:57.375Z,66.27
2022-07-30T08:54:08.169Z,66.71
2022-07-30T08:55:21.969Z,66.73
2022-07-30T08:56:31.998Z,66.77
2022-07-30T08:57:40.609Z,66.59
2022-07-30T08:58:48.950Z,66.25
2022-07-30T09:00:04.639Z,66.38
2022-07-30T09:01:14.588Z,66.31
2022-07-30T09:02:27.339Z,66.36
2022-07-30T09:03:46.343Z,66.34
2022-07-30T09:04:54.856Z,66.29
2022-07-30T09:06:04.540Z,66.36
2022-07-30T09:07:13.875Z,66.21
2022-07-30T09:08:21.767Z,66.50
2022-07-30T09:09:32.461Z,66.70
2022-07-30T09:10:40.345Z,66.59
2022-07-30T09:12:02.149Z,66.64
2022-07-30T09:13:32.410Z,66.69
2022-07-30T09:14:40.889Z,66.76
2022-07-30T09:15:51.971Z,66.68
2022-07-30T09:17:01.768Z,66.49
2022-07-30T09:18:12.055Z,66.28
2022-07-30T09:19:26.998Z,66.12
2022-07-30T09:20:39.230Z,66.10
2022-07-30T09:22:00.843Z,66.00
2022-07-30T09:23:31.951Z,65.95
2022-07-30T09:25:23.927Z,66.24
2022-07-30T09:27:00.255Z,66.14
2022-07-30T09:28:34.601Z,66.10
2022-07-30T09:30:03.970Z,66.38
2022-07-30T09:32:19.429Z,66.60
2022-07-30T09:33:47.334Z,66.73
2022-07-30T09:35:19.827Z,66.31
2022-07-30T09:36:45.928Z,66.07
2022-07-30T09:38:06.873Z,66.04
2022-07-30T09:39:40.515Z,65.96
2022-07-30T09:41:29.149Z,66.33
2022-07-30T09:42:51.470Z,66.34
2022-07-30T09:44:01.266Z,66.46
2022-07-30T09:45:15.467Z,66.32
2022-07-30T09:46:27.882Z,66.26
2022-07-30T09:47:56.601Z,66.23
2022-07-30T09:49:21.655Z,65.99
2022-07-30T09:50:32.309Z,66.22
2022-07-30T09:51:55.806Z,66.34
2022-07-30T09:53:12.451Z,66.49
2022-07-30T09:54:24.362Z,66.83
2022-07-30T09:55:41.918Z,67.01
2022-07-30T09:57:07.214Z,67.32
2022-07-30T09:58:45.571Z,67.34
2022-07-30T09:59:55.795Z,67.23
2022-07-30T10:01:06.722Z,66.95
2022-07-30T10:02:34.734Z,66.82
2022-07-30T10:04:03.883Z,66.78
2022-07-30T10:05:41.725Z,66.85
2022-07-30T10:06:50.463Z,66.88
2022-07-30T10:08:09.510Z,66.89
2022-07-30T10:09:33.264Z,66.99
2022-07-30T10:10:50.679Z,67.22
2022-07-30T10:12:12.839Z,67.30
2022-07-30T10:13:28.229Z,67.23
2022-07-30T10:14:42.303Z,67.09
2022-07-30T10:15:52.385Z,66.97
2022-07-30T10:17:02.970Z,67.19
2022-07-30T10:18:14.971Z,67.19
2022-07-30T10:19:40.333Z,67.11
2022-07-30T10:20:56.794Z,67.30
2022-07-30T10:22:37.409Z,67.56
2022-07-30T10:24:07.002Z,67.84
2022-07-30T10:25:35.228Z,67.94
2022-07-30T10:27:06.318Z,67.89
2022-07-30T10:28:35.837Z,67.74
2022-07-30T10:29:47.207Z,67.59
2022-07-30T10:30:56.276Z,67.70
2022-07-30T10:32:07.723Z,67.49
2022-07-30T10:33:34.571Z,67.28
2022-07-30T10:34:46.570Z,67.22
2022-07-30T10:35:55.914Z,67.28
2022-07-30T10:37:08.075Z,67.60
2022-07-30T10:38:18.829Z,67.74
2022-07-30T10:39:29.837Z,68.00
2022-07-30T10:40:51.701Z,68.08
2022-07-30T10:42:31.145Z,68.04
2022-07-30T10:43:58.372Z,68.28
2022-07-30T10:45:22.016Z,68.29
2022-07-30T10:46:46.967Z,68.12
2022-07-30T10:47:58.835Z,68.05
2022-07-30T10:49:18.823Z,68.18
2022-07-30T10:50:30.618Z,68.08
2022-07-30T10:51:50.927Z,68.33
2022-07-30T10:53:05.363Z,68.29
2022-07-30T10:54:41.692Z,68.28
2022-07-30T10:55:49.916Z,68.27
2022-07-30T10:57:31.772Z,68.14
2022-07-30T10:59:04.943Z,68.15
2022-07-30T11:00:18.932Z,68.09
2022-07-30T11:01:53.604Z,68.16
2022-07-30T11:03:16.936Z,68.36
2022-07-30T11:04:29.501Z,68.26
2022-07-30T11:05:44.941Z,68.36
2022-07-30T11:07:26.922Z,68.48
2022-07-30T11:08:48.245Z,68.63
2022-07-30T11:10:09.362Z,68.38
2022-07-30T11:12:01.334Z,68.25
2022-07-30T11:12:57.488Z,68.09
2022-07-30T11:14:06.607Z,67.83
2022-07-30T11:15:18.926Z,67.87
2022-07-30T11:16:38.507Z,67.90
2022-07-30T11:18:13.963Z,67.94
2022-07-30T11:19:55.234Z,68.25
2022-07-30T11:21:24.372Z,68.37
2022-07-30T11:22:40.808Z,68.48
2022-07-30T11:23:49.542Z,68.55
2022-07-30T11:25:13.101Z,68.65
2022-07-30T11:26:48.536Z,68.75
2022-07-30T11:27:57.408Z,68.98
2022-07-30T11:29:13.180Z,69.05
2022-07-30T11:30:25.367Z,69.30
2022-07-30T11:31:57.063Z,69.50
2022-07-30T11:33:08.097Z,69.50
2022-07-30T11:34:24.234Z,69.47
2022-07-30T11:35:36.797Z,69.54
2022-07-30T11:37:32.485Z,69.61
2022-07-30T11:39:05.257Z,69.63
2022-07-30T11:40:16.870Z,69.66
2022-07-30T11:41:36.283Z,69.50
2022-07-30T11:42:44.575Z,69.34
2022-07-30T11:44:32.356Z,69.34
2022-07-30T11:45:41.202Z,69.37
2022-07-30T11:46:53.938Z,69.44
2022-07-30T11:48:02.766Z,69.48
2022-07-30T11:49:11.835Z,69.69
2022-07-30T11:50:39.847Z,69.66
2022-07-30T11:51:49.069Z,69.70
2022-07-30T11:52:59.076Z,69.69
2022-07-30T11:54:10.652Z,69.58
2022-07-30T11:55:26.998Z,69.46
2022-07-30T11:56:39.364Z,69.72
2022-07-30T11:57:47.621Z,69.70
2022-07-30T11:58:55.653Z,69.86
2022-07-30T12:00:03.828Z,69.78
2022-07-30T12:01:24.144Z,69.79
2022-07-30T12:02:36.064Z,69.81
2022-07-30T12:03:45.799Z,69.74
2022-07-30T12:04:54.009Z,69.65
2022-07-30T12:06:15.809Z,69.51
2022-07-30T12:07:28.002Z,69.26
2022-07-30T12:09:04.258Z,69.00
2022-07-30T12:10:25.675Z,68.85
2022-07-30T12:11:39.104Z,68.64
2022-07-30T12:12:47.639Z,68.33
2022-07-30T12:14:03.498Z,68.20
2022-07-30T12:15:14.121Z,68.08
2022-07-30T12:16:22.939Z,67.98
2022-07-30T12:17:46.515Z,67.95
2022-07-30T12:18:55.081Z,67.87
2022-07-30T12:20:16.541Z,67.74
2022-07-30T12:21:27.928Z,67.68
2022-07-30T12:22:36.623Z,67.48
2022-07-30T12:23:45.063Z,67.44
2022-07-30T12:24:54.782Z,67.50
2022-07-30T12:26:05.454Z,67.40
2022-07-30T12:27:14.192Z,67.45
2022-07-30T12:28:24.830Z,67.41
2022-07-30T12:29:35.411Z,67.37
2022-07-30T12:30:46.270Z,67.63
2022-07-30T12:31:55.245Z,67.79
2022-07-30T12:33:03.158Z,67.91
2022-07-30T12:34:32.087Z,67.87
2022-07-30T12:35:53.623Z,67.81
2022-07-30T12:37:12.740Z,67.88
2022-07-30T12:38:24.464Z,67.88
2022-07-30T12:39:33.065Z,67.77
2022-07-30T12:41:03.644Z,67.79
2022-07-30T12:42:23.614Z,67.85
2022-07-30T12:43:57.173Z,67.88
2022-07-30T12:45:05.055Z,67.98
2022-07-30T12:46:18.954Z,68.01
2022-07-30T12:47:30.656Z,67.88
2022-07-30T12:48:40.181Z,67.68
2022-07-30T12:49:49.566Z,67.64
2022-07-30T12:51:12.953Z,67.49
2022-07-30T12:52:31.495Z,67.37
2022-07-30T12:53:39.967Z,67.35
2022-07-30T12:54:48.544Z,67.46
2022-07-30T12:55:57.037Z,67.55
2022-07-30T12:57:08.351Z,67.58
2022-07-30T12:58:20.203Z,67.60
2022-07-30T12:59:32.953Z,67.71
2022-07-30T13:00:54.406Z,67.96
2022-07-30T13:02:05.354Z,68.30
2022-07-30T13:03:26.134Z,68.31
2022-07-30T13:04:39.774Z,68.67
2022-07-30T13:05:55.499Z,68.81
2022-07-30T13:07:12.554Z,69.03
2022-07-30T13:08:22.181Z,69.01
2022-07-30T13:09:31.885Z,69.21
2022-07-30T13:10:40.524Z,69.28
2022-07-30T13:11:49.316Z,69.40
2022-07-30T13:13:01.799Z,69.52
2022-07-30T13:14:14.506Z,69.61
2022-07-30T13:15:28.179Z,69.51
2022-07-30T13:16:37.638Z,69.50
2022-07-30T13:17:45.652Z,69.66
2022-07-30T13:18:53.791Z,69.73
2022-07-30T13:20:02.619Z,69.80
2022-07-30T13:21:13.013Z,69.77
2022-07-30T13:22:22.252Z,69.80
2022-07-30T13:23:33.055Z,69.75
2022-07-30T13:24:42.289Z,69.56
2022-07-30T13:25:50.907Z,69.35
2022-07-30T13:26:59.124Z,69.18
2022-07-30T13:28:09.995Z,68.87
2022-07-30T13:29:20.649Z,68.50
2022-07-30T13:30:31.311Z,68.20
2022-07-30T13:31:43.163Z,67.98
2022-07-30T13:32:52.195Z,67.81
2022-07-30T13:34:02.910Z,67.46
2022-07-30T13:35:12.380Z,67.04
2022-07-30T13:36:23.209Z,66.74
2022-07-30T13:37:38.519Z,66.27
2022-07-30T13:38:52.054Z,65.79
2022-07-30T13:40:03.057Z,65.33
2022-07-30T13:41:12.808Z,64.90
2022-07-30T13:42:20.857Z,64.34
2022-07-30T13:43:34.066Z,63.90
2022-07-30T13:44:44.784Z,63.57
2022-07-30T13:45:59.872Z,63.20
2022-07-30T13:47:09.717Z,63.00
2022-07-30T13:48:21.155Z,62.64
2022-07-30T13:49:30.389Z,62.55
2022-07-30T13:50:40.766Z,62.62
2022-07-30T13:51:48.854Z,63.05
2022-07-30T13:53:02.745Z,63.47
2022-07-30T13:54:13.897Z,63.63
2022-07-30T13:55:22.759Z,64.10
2022-07-30T13:56:32.285Z,64.34
2022-07-30T13:57:40.783Z,64.62
2022-07-30T13:58:53.673Z,65.02
2022-07-30T14:00:03.219Z,65.58
2022-07-30T14:01:17.431Z,65.87
2022-07-30T14:02:30.648Z,66.19
2022-07-30T14:03:42.356Z,66.35
2022-07-30T14:04:53.479Z,66.30
2022-07-30T14:06:11.056Z,66.49
2022-07-30T14:07:20.534Z,66.41
2022-07-30T14:08:30.356Z,66.19
2022-07-30T14:09:46.850Z,66.15
2022-07-30T14:10:57.365Z,65.69
2022-07-30T14:12:08.364Z,65.20
2022-07-30T14:13:20.965Z,64.48
2022-07-30T14:14:30.138Z,63.81
2022-07-30T14:15:41.926Z,63.45
2022-07-30T14:16:53.919Z,62.45
2022-07-30T14:18:03.442Z,61.41
2022-07-30T14:19:22.926Z,60.16
2022-07-30T14:20:33.234Z,58.96
2022-07-30T14:21:43.561Z,57.89
2022-07-30T14:22:53.252Z,55.90
2022-07-30T14:24:02.929Z,56.23
2022-07-30T14:25:13.518Z,55.27
2022-07-30T14:26:22.934Z,54.56
2022-07-30T14:27:31.935Z,53.72
2022-07-30T14:28:42.171Z,53.47
2022-07-30T14:29:50.280Z,52.47
2022-07-30T14:31:02.413Z,52.06
2022-07-30T14:32:13.397Z,51.09
2022-07-30T14:33:22.634Z,50.48
2022-07-30T14:34:32.510Z,49.95
2022-07-30T14:35:41.203Z,48.55
2022-07-30T14:36:49.331Z,48.20
2022-07-30T14:37:57.956Z,47.20
2022-07-30T14:39:08.396Z,47.26
2022-07-30T14:40:19.249Z,47.10
2022-07-30T14:41:30.159Z,46.81
2022-07-30T14:42:44.143Z,46.42
2022-07-30T14:43:51.983Z,45.93
2022-07-30T14:45:02.998Z,45.69
2022-07-30T14:46:11.268Z,45.26
2022-07-30T14:47:22.595Z,44.94
2022-07-30T14:48:32.529Z,43.85
2022-07-30T14:49:42.014Z,43.38
2022-07-30T14:51:12.114Z,42.51
2022-07-30T14:52:18.615Z,42.88
2022-07-30T14:53:26.719Z,42.49
2022-07-30T14:54:35.600Z,42.27
2022-07-30T14:55:43.557Z,42.41
2022-07-30T14:56:56.201Z,42.18
2022-07-30T14:58:08.492Z,41.75
2022-07-30T14:59:18.765Z,41.25
2022-07-30T15:00:29.689Z,40.88
2022-07-30T15:01:41.035Z,41.17
2022-07-30T15:02:49.113Z,41.22
2022-07-30T15:03:57.118Z,41.31
2022-07-30T15:05:06.150Z,40.78
2022-07-30T15:06:17.101Z,40.16
2022-07-30T15:07:28.878Z,39.91
2022-07-30T15:08:38.061Z,39.55
2022-07-30T15:09:46.386Z,39.57
2022-07-30T15:10:54.372Z,39.67
2022-07-30T15:12:07.853Z,39.25
2022-07-30T15:13:17.588Z,38.68
2022-07-30T15:14:29.263Z,38.77
2022-07-30T15:15:40.036Z,38.40
2022-07-30T15:16:48.082Z,38.56
2022-07-30T15:17:56.157Z,39.22
2022-07-30T15:19:06.384Z,39.66
2022-07-30T15:20:16.238Z,40.03
2022-07-30T15:21:24.561Z,40.24
2022-07-30T15:22:33.672Z,40.53
2022-07-30T15:23:42.349Z,40.42
2022-07-30T15:24:50.754Z,40.42
2022-07-30T15:25:58.948Z,39.99
2022-07-30T15:27:09.698Z,39.62
2022-07-30T15:28:21.092Z,39.24
2022-07-30T15:29:32.656Z,38.97
2022-07-30T15:30:42.796Z,38.42
2022-07-30T15:31:50.553Z,38.13
2022-07-30T15:32:59.150Z,37.44
2022-07-30T15:34:14.500Z,37.34
2022-07-30T15:35:24.448Z,36.56
2022-07-30T15:36:35.094Z,36.12
2022-07-30T15:37:44.013Z,35.72
2022-07-30T15:38:51.422Z,35.86
2022-07-30T15:40:03.422Z,35.62
2022-07-30T15:41:14.013Z,35.68
2022-07-30T15:42:23.084Z,35.60
2022-07-30T15:43:32.776Z,35.41
2022-07-30T15:44:48.879Z,35.15
2022-07-30T15:45:59.639Z,34.65
2022-07-30T15:47:13.131Z,35.14
2022-07-30T15:48:26.575Z,35.24
2022-07-30T15:49:39.483Z,35.25
2022-07-30T15:50:47.976Z,34.73
2022-07-30T15:51:56.957Z,35.07
2022-07-30T15:53:09.522Z,35.22
2022-07-30T15:54:22.884Z,35.37
2022-07-30T15:55:46.982Z,35.15
2022-07-30T15:57:00.711Z,35.07
2022-07-30T15:58:12.540Z,34.58
2022-07-30T15:59:23.693Z,34.49